Time;durP1;ratioP1;P1;durP2;ratioP2;P2;SDS_P1;SDS_P2;PMS_P1;PMS_P2;Temp;Humidity;BMP_temperature;BMP_pressure;BME280_temperature;BME280_humidity;BME280_pressure;Samples;Min_cycle;Max_cycle;Signal;HPM_P1;HPM_P2
2021/04/07 00:01:32;;;;;;;42.83;21.00;;;;;;;30.85;51.07;101118.53;4807740;29;66324;-33
2021/04/07 00:04:01;;;;;;;35.13;20.83;;;;;;;30.87;51.58;101125.41;4806684;29;69846;-34
2021/04/07 00:06:36;;;;;;;47.65;21.13;;;;;;;30.89;51.55;101136.84;4804818;29;66058;-33
2021/04/07 00:09:07;;;;;;;43.25;21.23;;;;;;;30.81;51.93;101126.25;4803925;29;70227;-33
2021/04/07 00:11:37;;;;;;;48.30;19.23;;;;;;;30.96;52.32;101131.41;4798938;29;67038;-33
2021/04/07 00:14:13;;;;;;;41.10;19.67;;;;;;;30.99;52.69;101128.28;4800369;29;70173;-33
2021/04/07 00:16:42;;;;;;;47.80;20.65;;;;;;;30.98;52.48;101132.03;4804613;29;65652;-33
2021/04/07 00:19:12;;;;;;;52.83;22.08;;;;;;;31.01;52.46;101141.59;4804898;29;69767;-34
2021/04/07 00:21:42;;;;;;;40.28;21.58;;;;;;;31.02;53.52;101144.09;4799485;29;66071;-34
2021/04/07 00:24:12;;;;;;;53.63;21.35;;;;;;;31.09;53.03;101150.31;4794284;29;69118;-34
2021/04/07 00:26:41;;;;;;;44.25;21.13;;;;;;;31.19;52.29;101165.28;4802164;29;65906;-34
2021/04/07 00:29:11;;;;;;;45.10;20.73;;;;;;;31.23;52.35;101161.09;4804992;29;71456;-33
2021/04/07 00:31:43;;;;;;;37.70;21.48;;;;;;;31.24;52.33;101163.59;4800053;29;66369;-33
2021/04/07 00:34:16;;;;;;;35.22;20.88;;;;;;;31.29;51.64;101165.66;4791456;29;69280;-33
2021/04/07 00:36:46;;;;;;;36.38;21.55;;;;;;;31.27;52.02;101168.56;4794498;29;65160;-35
2021/04/07 00:39:15;;;;;;;47.05;19.90;;;;;;;31.36;51.95;101174.59;4801458;29;70020;-34
2021/04/07 00:41:44;;;;;;;30.83;21.20;;;;;;;31.39;51.09;101182.31;4799080;29;66084;-32
2021/04/07 00:44:15;;;;;;;31.48;19.77;;;;;;;31.40;51.39;101178.56;4792961;29;70191;-34
2021/04/07 00:46:47;;;;;;;31.05;20.60;;;;;;;31.40;51.12;101181.28;4796728;29;65357;-33
2021/04/07 00:49:16;;;;;;;31.40;20.50;;;;;;;31.39;50.83;101168.75;4798309;29;69051;-34
2021/04/07 00:51:46;;;;;;;26.73;20.20;;;;;;;31.42;50.53;101165.59;4798995;29;65403;-34
2021/04/07 00:54:15;;;;;;;30.88;20.63;;;;;;;31.45;50.63;101176.00;4818566;29;69237;-34
2021/04/07 00:56:45;;;;;;;33.22;20.70;;;;;;;31.41;50.42;101163.94;4799804;29;66288;-33
2021/04/07 00:59:20;;;;;;;32.78;20.02;;;;;;;31.52;50.42;101181.41;4798771;29;69863;-33
2021/04/07 01:01:50;;;;;;;29.75;20.55;;;;;;;31.55;50.14;101186.38;4798616;29;66238;-32
2021/04/07 01:04:21;;;;;;;32.60;19.38;;;;;;;31.57;50.55;101189.72;4804610;29;70581;-33
2021/04/07 01:06:52;;;;;;;35.50;20.63;;;;;;;31.57;50.13;101185.13;4805987;29;65396;-33
2021/04/07 01:09:22;;;;;;;28.38;20.58;;;;;;;31.58;49.85;101180.53;4802730;29;69953;-32
2021/04/07 01:11:52;;;;;;;34.85;20.50;;;;;;;31.63;50.14;101193.44;4804865;29;66227;-34
2021/04/07 01:14:27;;;;;;;31.27;20.45;;;;;;;31.65;49.83;101202.16;4797131;29;70664;-33
2021/04/07 01:16:57;;;;;;;31.60;21.02;;;;;;;31.66;49.70;101203.84;4806483;29;66678;-33
2021/04/07 01:19:28;;;;;;;28.48;20.55;;;;;;;31.68;49.57;101207.16;4800382;29;69969;-32
2021/04/07 01:21:59;;;;;;;29.65;19.95;;;;;;;31.68;49.56;101207.16;4805292;29;66117;-34
2021/04/07 01:24:32;;;;;;;28.20;21.15;;;;;;;31.72;49.71;101206.50;4803040;29;69912;-34
2021/04/07 01:27:02;;;;;;;30.65;21.35;;;;;;;31.75;49.72;101207.97;4802826;29;65074;-34
2021/04/07 01:29:32;;;;;;;23.38;19.42;;;;;;;31.74;49.42;101206.31;4802077;29;71227;-34
2021/04/07 01:32:02;;;;;;;25.67;20.65;;;;;;;31.78;49.38;101205.63;4793564;29;66052;-34
2021/04/07 01:34:33;;;;;;;33.80;21.50;;;;;;;31.78;49.42;101204.81;4801215;29;70143;-33
2021/04/07 01:37:03;;;;;;;34.25;21.50;;;;;;;31.81;49.17;101213.31;4797006;29;65983;-33
2021/04/07 01:39:33;;;;;;;31.77;21.33;;;;;;;31.86;49.64;101218.09;4801898;29;69447;-33
2021/04/07 01:42:03;;;;;;;27.13;19.80;;;;;;;31.88;49.61;101218.72;4798291;29;66017;-33
2021/04/07 01:44:36;;;;;;;27.33;20.10;;;;;;;31.89;49.77;101212.25;4802186;29;68050;-33
2021/04/07 01:47:06;;;;;;;25.95;20.83;;;;;;;31.91;49.35;101222.88;4806177;29;65913;-34
2021/04/07 01:49:36;;;;;;;28.05;21.75;;;;;;;31.92;49.00;101209.13;4805495;29;70008;-33
2021/04/07 01:52:08;;;;;;;;;;;;;;;31.89;49.71;101228.50;4796617;29;65705;-33
2021/04/07 01:54:38;;;;;;;30.27;21.42;;;;;;;32.00;49.27;101227.84;4804280;29;69074;-34
2021/04/07 01:57:08;;;;;;;30.50;22.02;;;;;;;32.03;48.76;101226.56;4808081;29;66102;-34
2021/04/07 01:59:38;;;;;;;26.52;19.73;;;;;;;32.04;48.93;101223.66;4801913;29;70496;-33
2021/04/07 02:02:07;;;;;;;25.75;20.13;;;;;;;32.04;48.77;101223.66;4808322;29;66279;-33
2021/04/07 02:04:41;;;;;;;26.52;20.95;;;;;;;32.08;48.88;101223.22;4807038;29;69647;-33
2021/04/07 02:07:14;;;;;;;24.83;20.27;;;;;;;32.08;48.48;101220.50;4808526;29;66105;-34
2021/04/07 02:09:44;;;;;;;27.77;21.02;;;;;;;32.11;48.71;101220.06;4807031;29;69144;-34
2021/04/07 02:12:13;;;;;;;26.88;21.17;;;;;;;32.12;48.68;101219.81;4808660;29;66158;-34
2021/04/07 02:14:43;;;;;;;28.83;21.15;;;;;;;32.13;48.83;101221.50;4816138;29;69177;-34
2021/04/07 02:17:16;;;;;;;33.22;21.60;;;;;;;32.15;48.80;101215.84;4817948;29;66070;-33
2021/04/07 02:19:46;;;;;;;28.73;21.20;;;;;;;32.16;48.61;101212.91;4793014;29;70230;-34
2021/04/07 02:22:17;;;;;;;24.08;20.30;;;;;;;32.13;48.12;101198.97;4801419;29;65960;-34
2021/04/07 02:24:49;;;;;;;31.95;20.98;;;;;;;32.14;48.10;101200.59;4799645;29;70468;-33
2021/04/07 02:27:20;;;;;;;24.20;20.57;;;;;;;32.15;48.04;101205.84;4795731;29;65154;-33
2021/04/07 02:29:55;;;;;;;24.73;19.25;;;;;;;32.26;48.34;101215.13;4797963;29;69887;-34
2021/04/07 02:32:25;;;;;;;26.85;20.70;;;;;;;32.33;48.27;101225.94;4808388;29;66189;-33
2021/04/07 02:34:57;;;;;;;32.10;21.63;;;;;;;32.33;48.10;101215.91;4801818;29;69822;-34
2021/04/07 02:37:28;;;;;;;24.92;20.20;;;;;;;32.35;47.69;101221.94;4801810;29;66362;-34
2021/04/07 02:39:58;;;;;;;23.58;19.73;;;;;;;32.38;47.96;101213.34;4798474;29;69357;-33
2021/04/07 02:42:28;;;;;;;29.58;20.70;;;;;;;32.41;47.94;101212.91;4804911;29;66394;-33
2021/04/07 02:44:57;;;;;;;30.85;20.83;;;;;;;32.43;48.05;101216.25;4805121;29;70201;-34
2021/04/07 02:47:27;;;;;;;26.63;20.88;;;;;;;32.44;48.02;101209.75;4799452;29;65342;-34
2021/04/07 02:49:57;;;;;;;26.73;19.50;;;;;;;32.46;47.81;101204.13;4789708;29;70441;-34
2021/04/07 02:52:26;;;;;;;29.80;21.05;;;;;;;32.51;47.90;101208.88;4790983;29;65989;-34
2021/04/07 02:54:56;;;;;;;29.20;20.83;;;;;;;32.53;47.85;101210.31;4801221;29;69951;-34
2021/04/07 02:57:25;;;;;;;28.65;20.42;;;;;;;32.55;47.71;101210.09;4807452;29;66287;-33
2021/04/07 02:59:55;;;;;;;28.83;20.58;;;;;;;32.54;47.72;101205.69;4796472;29;70140;-34
2021/04/07 03:02:28;;;;;;;25.20;20.58;;;;;;;32.51;47.69;101200.72;4804092;29;65213;-34
2021/04/07 03:04:58;;;;;;;32.72;20.58;;;;;;;32.61;47.50;101206.47;4796936;29;69294;-34
2021/04/07 03:07:31;;;;;;;27.67;21.60;;;;;;;32.62;47.53;101198.09;4803254;29;65463;-35
2021/04/07 03:10:00;;;;;;;27.30;20.42;;;;;;;32.65;47.37;101202.25;4806437;29;70476;-33
2021/04/07 03:12:30;;;;;;;21.67;19.48;;;;;;;32.68;47.52;101199.06;4806145;29;65235;-35
2021/04/07 03:15:03;;;;;;;26.77;19.83;;;;;;;32.69;47.62;101198.03;4799853;29;69803;-34
2021/04/07 03:17:33;;;;;;;29.83;19.25;;;;;;;32.68;47.41;101174.63;4798069;29;65862;-35
2021/04/07 03:20:04;;;;;;;27.98;20.92;;;;;;;32.75;47.17;101180.84;4801470;29;70238;-34
2021/04/07 03:22:34;;;;;;;25.05;19.58;;;;;;;32.80;47.51;101183.72;4807929;29;66206;-33
2021/04/07 03:25:06;;;;;;;25.02;19.45;;;;;;;32.85;46.62;101185.75;4804735;29;70158;-33
2021/04/07 03:27:38;;;;;;;25.00;19.52;;;;;;;32.84;47.07;101184.91;4795198;29;66036;-34
2021/04/07 03:30:08;;;;;;;27.85;19.00;;;;;;;32.88;46.86;101179.88;4807676;29;70012;-34
2021/04/07 03:32:38;;;;;;;21.67;19.38;;;;;;;32.89;46.87;101176.09;4804889;29;65543;-33
2021/04/07 03:35:07;;;;;;;25.00;19.48;;;;;;;32.94;46.69;101177.06;4807295;29;70008;-34
2021/04/07 03:37:37;;;;;;;20.67;18.65;;;;;;;32.98;46.97;101173.88;4806507;29;65602;-34
2021/04/07 03:40:08;;;;;;;23.33;18.73;;;;;;;33.02;46.63;101177.84;4807291;29;69891;-34
2021/04/07 03:42:38;;;;;;;20.02;17.95;;;;;;;33.00;47.08;101172.63;4805461;29;67442;-36
2021/04/07 03:45:14;;;;;;;20.40;18.27;;;;;;;33.04;47.05;101168.41;4801689;29;70327;-34
2021/04/07 03:47:43;;;;;;;22.55;18.35;;;;;;;33.08;46.79;101157.91;4804273;29;66638;-34
2021/04/07 03:50:13;;;;;;;21.50;19.00;;;;;;;33.08;46.61;101158.72;4807413;29;69167;-34
2021/04/07 03:52:43;;;;;;;23.95;19.05;;;;;;;33.09;46.69;101154.94;4807564;29;65624;-33
2021/04/07 03:55:16;;;;;;;20.90;18.77;;;;;;;33.11;46.68;101146.56;4807337;29;70287;-34
2021/04/07 03:57:46;;;;;;;23.42;18.80;;;;;;;33.13;46.71;101139.03;4808261;29;66114;-36
2021/04/07 04:00:16;;;;;;;26.58;19.38;;;;;;;33.11;46.54;101125.66;4807174;29;70307;-35
2021/04/07 04:02:46;;;;;;;22.17;18.02;;;;;;;33.15;46.88;101126.88;4806300;29;67465;-34
2021/04/07 04:05:17;;;;;;;20.23;18.05;;;;;;;33.15;46.55;101126.00;4807506;29;70390;-35
2021/04/07 04:07:50;;;;;;;28.98;19.08;;;;;;;33.18;46.49;101120.13;4804499;29;66249;-34
2021/04/07 04:10:23;;;;;;;19.95;17.83;;;;;;;33.20;46.61;101107.13;4808626;29;70196;-34
2021/04/07 04:12:55;;;;;;;22.40;18.60;;;;;;;33.14;46.41;101091.75;4806368;29;66680;-34
2021/04/07 04:15:26;;;;;;;20.63;17.63;;;;;;;33.24;46.50;101102.06;4803270;29;70308;-34
2021/04/07 04:17:56;;;;;;;21.35;17.98;;;;;;;33.25;46.62;101098.28;4807308;29;67044;-33
2021/04/07 04:20:27;;;;;;;22.95;17.80;;;;;;;33.28;46.58;101084.22;4808131;29;70426;-33
2021/04/07 04:22:56;;;;;;;19.65;17.80;;;;;;;33.29;46.34;101086.72;4798996;29;65419;-33
2021/04/07 04:25:26;;;;;;;23.75;18.33;;;;;;;33.29;46.45;101061.41;4810447;29;69888;-35
2021/04/07 04:27:59;;;;;;;20.63;18.10;;;;;;;33.31;46.29;101049.25;4803479;29;66973;-34
2021/04/07 04:30:34;;;;;;;20.67;18.58;;;;;;;33.33;46.29;101052.56;4810522;29;70661;-33
2021/04/07 04:33:04;;;;;;;20.55;18.42;;;;;;;33.36;46.65;101046.66;4804016;29;65533;-34
2021/04/07 04:35:36;;;;;;;19.98;17.58;;;;;;;33.38;46.46;101043.72;4810070;29;69818;-33
2021/04/07 04:38:06;;;;;;;19.98;17.67;;;;;;;33.41;46.17;101037.81;4798984;29;66177;-33
2021/04/07 04:40:35;;;;;;;19.73;17.77;;;;;;;33.42;46.25;101038.63;4811512;29;70310;-33
2021/04/07 04:43:05;;;;;;;20.55;17.73;;;;;;;33.43;46.16;101030.22;4796744;29;65456;-34
2021/04/07 04:45:36;;;;;;;20.52;17.98;;;;;;;33.44;46.38;101025.63;4809752;29;69875;-34
2021/04/07 04:48:08;;;;;;;19.98;16.75;;;;;;;33.43;46.62;101021.25;4809067;29;66191;-34
2021/04/07 04:50:37;;;;;;;21.15;17.63;;;;;;;33.48;46.30;101018.66;4806190;29;69867;-34
2021/04/07 04:53:10;;;;;;;19.70;17.60;;;;;;;33.53;46.59;101010.66;4811002;29;66308;-34
2021/04/07 04:55:39;;;;;;;19.15;17.23;;;;;;;33.55;46.03;100995.75;4808668;29;69940;-34
2021/04/07 04:58:09;;;;;;;19.90;17.70;;;;;;;33.57;46.17;100990.91;4809417;29;66098;-34
2021/04/07 05:00:38;;;;;;;21.25;17.50;;;;;;;33.56;46.02;100972.09;4800959;29;69889;-34
2021/04/07 05:03:07;;;;;;;19.42;17.52;;;;;;;33.60;46.06;100984.19;4810646;29;65402;-34
2021/04/07 05:05:37;;;;;;;23.55;18.33;;;;;;;33.61;46.02;100977.66;4807228;29;70620;-34
2021/04/07 05:08:06;;;;;;;19.58;16.80;;;;;;;33.63;46.10;100972.81;4810476;29;66130;-34
2021/04/07 05:10:36;;;;;;;19.23;17.40;;;;;;;33.68;46.04;100972.09;4800118;29;69660;-34
2021/04/07 05:13:06;;;;;;;24.20;17.80;;;;;;;33.67;45.95;100965.84;4791843;29;65369;-33
2021/04/07 05:15:35;;;;;;;21.45;17.25;;;;;;;33.69;46.08;100957.44;4794941;29;69965;-33
2021/04/07 05:18:13;;;;;;;20.75;17.45;;;;;;;33.70;45.87;100942.75;4801717;29;66054;-33
2021/04/07 05:20:46;;;;;;;20.75;17.38;;;;;;;33.75;45.90;100945.59;4807228;29;70079;-33
2021/04/07 05:23:15;;;;;;;18.38;16.52;;;;;;;33.75;45.94;100945.59;4801346;29;65198;-34
2021/04/07 05:25:44;;;;;;;18.10;16.50;;;;;;;33.78;46.01;100937.78;4794658;29;69670;-34
2021/04/07 05:28:17;;;;;;;18.85;17.05;;;;;;;33.77;46.01;100927.97;4801474;29;66511;-33
2021/04/07 05:30:59;;;;;;;17.83;16.42;;;;;;;33.77;46.15;100927.97;4796433;29;70178;-34
2021/04/07 05:33:34;;;;;;;18.48;16.65;;;;;;;33.79;45.79;100914.97;4796180;29;66161;-33
2021/04/07 05:36:09;;;;;;;18.45;16.40;;;;;;;33.74;45.94;100895.81;4792954;29;69227;-33
2021/04/07 05:38:43;;;;;;;18.67;16.70;;;;;;;33.87;45.86;100899.31;4800042;29;65250;-34
2021/04/07 05:41:13;;;;;;;18.75;16.80;;;;;;;33.88;45.76;100895.53;4797821;29;68867;-33
2021/04/07 05:43:42;;;;;;;17.55;16.02;;;;;;;33.91;46.11;100881.47;4804714;29;66173;-33
2021/04/07 05:46:12;;;;;;;19.30;17.40;;;;;;;33.90;46.00;100877.06;4802874;29;70208;-34
2021/04/07 05:48:42;;;;;;;16.73;15.20;;;;;;;33.96;45.77;100871.50;4800995;29;66409;-34
2021/04/07 05:51:15;;;;;;;20.10;17.13;;;;;;;33.99;45.77;100864.72;4802428;29;69112;-34
2021/04/07 05:53:47;;;;;;;21.17;17.40;;;;;;;33.99;45.73;100859.28;4798710;29;66053;-33
2021/04/07 05:56:29;;;;;;;18.75;16.58;;;;;;;34.01;45.76;100857.16;4796317;29;70186;-35
2021/04/07 05:58:59;;;;;;;17.85;16.33;;;;;;;34.03;45.75;100849.56;4804531;29;65545;-33
2021/04/07 06:01:29;;;;;;;20.85;17.40;;;;;;;34.02;45.72;100842.50;4802182;29;69317;-33
2021/04/07 06:03:58;;;;;;;18.90;17.10;;;;;;;34.03;45.88;100827.81;4800736;29;65909;-34
2021/04/07 06:06:29;;;;;;;19.08;17.23;;;;;;;34.06;45.81;100832.78;4802177;29;70306;-33
2021/04/07 06:08:59;;;;;;;18.00;16.20;;;;;;;34.05;45.83;100820.25;4798261;29;66250;-33
2021/04/07 06:11:28;;;;;;;20.38;17.27;;;;;;;34.08;45.51;100819.78;4806322;29;69359;-33
2021/04/07 06:13:58;;;;;;;19.98;16.70;;;;;;;34.10;45.50;100812.19;4800899;29;66847;-33
2021/04/07 06:16:27;;;;;;;18.30;16.55;;;;;;;34.09;45.89;100807.81;4799807;29;70061;-33
2021/04/07 06:18:58;;;;;;;18.70;16.67;;;;;;;34.10;45.59;100798.59;4795993;29;66142;-33
2021/04/07 06:21:31;;;;;;;;;;;;;;;33.99;46.02;100792.09;4808563;29;69263;-34
2021/04/07 06:24:04;;;;;;;17.45;15.93;;;;;;;34.17;45.50;100796.53;4793969;29;66182;-34
2021/04/07 06:26:33;;;;;;;20.63;16.45;;;;;;;34.19;45.66;100786.22;4808924;29;69515;-34
2021/04/07 06:29:03;;;;;;;17.25;15.82;;;;;;;34.16;45.36;100762.22;4789582;29;65940;-33
2021/04/07 06:31:33;;;;;;;16.73;15.52;;;;;;;34.24;45.56;100775.44;4801471;29;70055;-33
2021/04/07 06:34:02;;;;;;;18.60;16.75;;;;;;;34.28;45.49;100769.47;4801197;29;65778;-33
2021/04/07 06:36:32;;;;;;;18.65;16.35;;;;;;;34.31;45.47;100752.66;4803544;29;69967;-33
2021/04/07 06:39:01;;;;;;;21.20;17.15;;;;;;;34.34;45.57;100746.72;4802036;29;66335;-32
2021/04/07 06:41:35;;;;;;;17.85;16.25;;;;;;;34.38;45.20;100747.84;4806281;29;69900;-32
2021/04/07 06:44:05;;;;;;;17.63;16.23;;;;;;;34.42;45.11;100738.13;4797721;29;66152;-34
2021/04/07 06:46:34;;;;;;;17.88;16.02;;;;;;;34.47;45.34;100744.47;4805909;29;69912;-34
2021/04/07 06:49:05;;;;;;;17.75;16.13;;;;;;;34.52;45.03;100738.31;4806475;29;66505;-33
2021/04/07 06:51:36;;;;;;;17.58;15.82;;;;;;;34.51;45.21;100725.72;4797068;29;69076;-33
2021/04/07 06:54:06;;;;;;;16.57;14.97;;;;;;;34.58;45.21;100726.44;4819597;29;66084;-34
2021/04/07 06:56:36;;;;;;;19.15;16.02;;;;;;;34.62;45.17;100727.56;4798455;29;70645;-34
2021/04/07 06:59:06;;;;;;;16.80;15.30;;;;;;;34.59;45.04;100710.91;4802243;29;66205;-33
2021/04/07 07:01:35;;;;;;;17.73;16.25;;;;;;;34.69;44.77;100716.50;4807633;29;69963;-34
2021/04/07 07:04:05;;;;;;;17.83;16.02;;;;;;;34.73;44.65;100711.38;4807111;29;66739;-34
2021/04/07 07:06:35;;;;;;;17.08;15.68;;;;;;;34.77;44.80;100704.34;4796671;29;69940;-34
2021/04/07 07:09:13;;;;;;;18.50;16.58;;;;;;;34.76;44.69;100710.88;4802368;29;67098;-34
2021/04/07 07:11:48;;;;;;;17.50;15.82;;;;;;;34.74;44.45;100686.59;4803371;29;70690;-34
2021/04/07 07:14:20;;;;;;;17.08;15.43;;;;;;;34.87;44.57;100694.41;4797705;29;66260;-34
2021/04/07 07:16:52;;;;;;;17.00;15.52;;;;;;;34.89;44.28;100699.63;4800814;29;69774;-34
2021/04/07 07:19:25;;;;;;;16.27;14.85;;;;;;;34.89;44.31;100694.16;4798291;29;66175;-33
2021/04/07 07:22:06;;;;;;;16.05;14.85;;;;;;;34.83;44.63;100678.84;4803101;29;70377;-34
2021/04/07 07:24:37;;;;;;;17.35;15.68;;;;;;;34.96;44.58;100694.78;4798998;29;66261;-34
2021/04/07 07:27:10;;;;;;;15.90;14.65;;;;;;;34.95;44.57;100687.69;4801685;29;69737;-34
2021/04/07 07:29:39;;;;;;;16.63;15.13;;;;;;;34.92;44.83;100677.31;4802752;29;65297;-34
2021/04/07 07:32:11;;;;;;;16.83;15.00;;;;;;;34.92;44.35;100678.13;4799802;29;69074;-33
2021/04/07 07:34:41;;;;;;;16.35;14.82;;;;;;;34.97;44.71;100680.09;4801157;29;66208;-35
2021/04/07 07:37:24;;;;;;;16.77;15.18;;;;;;;34.92;44.69;100678.13;4798633;29;69835;-34
2021/04/07 07:39:54;;;;;;;18.00;15.55;;;;;;;34.99;44.59;100677.09;4801830;29;66357;-33
2021/04/07 07:42:24;;;;;;;16.98;15.50;;;;;;;35.05;44.65;100670.63;4799347;29;69872;-34
2021/04/07 07:44:55;;;;;;;15.93;14.55;;;;;;;35.05;44.72;100671.47;4803144;29;66537;-35
2021/04/07 07:47:29;;;;;;;16.48;14.98;;;;;;;35.02;44.34;100663.81;4801039;29;70326;-34
2021/04/07 07:49:58;;;;;;;16.20;14.93;;;;;;;35.03;44.66;100665.47;4803669;29;66065;-35
2021/04/07 07:52:37;;;;;;;17.35;15.25;;;;;;;35.05;44.64;100660.59;4802254;29;68938;-34
2021/04/07 07:55:17;;;;;;;17.27;15.77;;;;;;;35.00;44.33;100657.78;4801354;29;65245;-34
2021/04/07 07:57:58;;;;;;;15.88;14.63;;;;;;;35.05;44.59;100649.69;4805793;29;70621;-34
2021/04/07 08:00:27;;;;;;;16.90;15.25;;;;;;;35.13;44.73;100645.69;4796981;29;65210;-34
2021/04/07 08:03:15;;;;;;;17.75;15.45;;;;;;;35.04;44.38;100637.09;4806563;29;70293;-34
2021/04/07 08:05:45;;;;;;;16.58;15.05;;;;;;;35.09;44.77;100636.38;4805998;29;65994;-34
2021/04/07 08:08:17;;;;;;;16.45;15.00;;;;;;;35.05;44.73;100632.47;4802350;29;69427;-34
2021/04/07 08:11:07;;;;;;;15.65;14.35;;;;;;;35.08;44.92;100638.28;4802035;29;65169;-35
2021/04/07 08:13:44;;;;;;;16.08;14.82;;;;;;;35.04;44.89;100618.03;4799542;29;69808;-34
2021/04/07 08:16:17;;;;;;;17.35;15.02;;;;;;;35.13;44.60;100630.19;4807492;29;65600;-34
2021/04/07 08:18:48;;;;;;;17.52;14.93;;;;;;;35.13;44.64;100634.78;4793012;29;69851;-34
2021/04/07 08:21:20;;;;;;;14.50;13.43;;;;;;;35.12;44.47;100628.50;4795106;29;65191;-34
2021/04/07 08:23:58;;;;;;;17.38;15.63;;;;;;;35.12;44.75;100623.06;4802472;29;70849;-35
2021/04/07 08:26:32;;;;;;;17.58;15.13;;;;;;;35.22;44.68;100636.00;4802838;29;66216;-34
2021/04/07 08:29:01;;;;;;;15.98;14.48;;;;;;;35.22;44.14;100632.44;4799151;29;69755;-34
2021/04/07 08:31:32;;;;;;;15.85;14.43;;;;;;;35.25;44.34;100631.94;4805927;29;65988;-34
2021/04/07 08:34:04;;;;;;;17.27;15.43;;;;;;;35.19;44.23;100616.56;4805756;29;69789;-34
2021/04/07 08:36:34;;;;;;;16.05;14.45;;;;;;;35.27;44.51;100635.22;4797654;29;65881;-33
2021/04/07 08:39:17;;;;;;;16.15;13.95;;;;;;;35.29;44.31;100622.16;4814477;29;69877;-35
2021/04/07 08:41:48;;;;;;;16.00;14.15;;;;;;;35.31;43.91;100630.91;4803205;29;66148;-34
2021/04/07 08:44:19;;;;;;;15.13;13.82;;;;;;;35.31;43.99;100625.44;4804948;29;69982;-34
2021/04/07 08:46:53;;;;;;;22.90;14.13;;;;;;;35.33;44.64;100626.03;4806304;29;66028;-34
2021/04/07 08:49:37;;;;;;;15.40;14.00;;;;;;;35.30;43.92;100630.09;4800052;29;70518;-35
2021/04/07 08:52:22;;;;;;;15.82;14.30;;;;;;;35.21;43.77;100600.78;4804584;29;65958;-35
2021/04/07 08:55:03;;;;;;;14.90;13.65;;;;;;;35.37;43.67;100618.97;4804350;29;69925;-34
2021/04/07 08:57:34;;;;;;;15.02;13.52;;;;;;;35.40;44.03;100618.44;4801455;29;65243;-35
2021/04/07 09:00:09;;;;;;;15.73;13.73;;;;;;;35.40;43.98;100618.44;4800080;29;70780;-35
2021/04/07 09:02:52;;;;;;;14.23;12.90;;;;;;;35.42;43.88;100621.75;4804179;29;66241;-35
2021/04/07 09:05:35;;;;;;;14.80;13.50;;;;;;;35.40;44.44;100618.44;4801673;29;69648;-34
2021/04/07 09:08:10;;;;;;;14.73;13.20;;;;;;;35.45;43.92;100615.78;4809349;29;65111;-33
2021/04/07 09:10:48;;;;;;;14.07;12.90;;;;;;;35.45;43.64;100615.78;4814807;29;68977;-33
2021/04/07 09:13:24;;;;;;;14.15;12.90;;;;;;;35.48;43.72;100620.72;4801823;29;66096;-34
2021/04/07 09:16:05;;;;;;;14.98;12.88;;;;;;;35.48;44.08;100607.06;4797844;29;70259;-34
2021/04/07 09:18:39;;;;;;;14.02;12.65;;;;;;;35.53;43.57;100618.03;4795482;29;65955;-34
2021/04/07 09:21:21;;;;;;;13.98;12.65;;;;;;;35.37;43.47;100591.69;4804607;29;70493;-35
2021/04/07 09:23:53;;;;;;;12.82;11.68;;;;;;;35.50;43.58;100610.38;4807582;29;65976;-34
2021/04/07 09:26:25;;;;;;;;;;;;;;;35.38;43.43;100608.88;4807471;29;70083;-34
2021/04/07 09:28:58;;;;;;;13.70;12.43;;;;;;;35.52;43.57;100621.00;4804090;29;67286;-35
2021/04/07 09:31:35;;;;;;;15.77;12.38;;;;;;;35.51;43.70;100617.47;4807501;29;69956;-35
2021/04/07 09:34:05;;;;;;;13.40;12.27;;;;;;;35.51;43.35;100620.19;4797990;29;66041;-35
2021/04/07 09:36:37;;;;;;;13.40;12.20;;;;;;;35.52;43.31;100632.75;4807727;29;69981;-35
2021/04/07 09:39:09;;;;;;;13.07;11.95;;;;;;;35.40;43.38;100621.16;4806020;29;66006;-35
2021/04/07 09:41:42;;;;;;;12.63;11.63;;;;;;;35.49;43.79;100627.78;4805460;29;69676;-35
2021/04/07 09:44:17;;;;;;;12.70;11.63;;;;;;;35.30;43.33;100604.69;4803857;29;66270;-34
2021/04/07 09:46:56;;;;;;;12.00;11.20;;;;;;;35.42;42.99;100638.09;4807396;29;70156;-34
2021/04/07 09:49:27;;;;;;;12.60;11.60;;;;;;;35.45;43.63;100637.59;4803024;29;66724;-35
2021/04/07 09:51:57;;;;;;;13.10;11.93;;;;;;;35.46;43.33;100633.78;4803930;29;69194;-35
2021/04/07 09:54:30;;;;;;;12.87;11.63;;;;;;;35.35;43.70;100632.03;4798566;29;66167;-35
2021/04/07 09:57:08;;;;;;;13.95;11.45;;;;;;;35.34;43.34;100635.84;4797246;29;68795;-34
2021/04/07 09:59:55;;;;;;;12.80;11.80;;;;;;;35.32;43.89;100638.00;4804762;29;66169;-35
2021/04/07 10:02:29;;;;;;;13.65;11.68;;;;;;;35.44;43.61;100646.88;4805895;29;70193;-35
2021/04/07 10:05:26;;;;;;;12.38;11.40;;;;;;;35.40;43.72;100650.34;4804164;29;65912;-37
2021/04/07 10:08:24;;;;;;;19.30;11.35;;;;;;;35.21;43.81;100658.06;4800897;29;69286;-34
2021/04/07 10:10:54;;;;;;;29.85;12.60;;;;;;;34.93;43.75;100659.88;4806442;29;64524;-35
2021/04/07 10:13:26;;;;;;;17.52;12.82;;;;;;;34.61;43.78;100670.63;4806995;29;70393;-36
2021/04/07 10:15:56;;;;;;;18.13;12.88;;;;;;;34.45;44.11;100677.72;4804241;29;65965;-35
2021/04/07 10:18:26;;;;;;;26.45;13.35;;;;;;;34.44;43.86;100676.06;4800571;29;70297;-36
2021/04/07 10:21:14;;;;;;;27.48;13.55;;;;;;;34.21;44.53;100675.19;4806408;29;65211;-37
2021/04/07 10:23:46;;;;;;;29.35;13.65;;;;;;;34.22;44.36;100670.56;4803905;29;69362;-35
2021/04/07 10:26:17;;;;;;;24.75;13.73;;;;;;;34.24;44.75;100676.56;4799175;29;66259;-34
2021/04/07 10:29:00;;;;;;;23.48;13.30;;;;;;;34.22;44.90;100685.00;4799940;29;69775;-35
2021/04/07 10:31:31;;;;;;;21.23;14.02;;;;;;;34.20;44.48;100676.25;4799677;29;66111;-35
2021/04/07 10:34:04;;;;;;;18.95;12.77;;;;;;;34.21;44.75;100688.81;4798898;29;70033;-35
2021/04/07 10:36:39;;;;;;;27.52;13.93;;;;;;;34.19;44.98;100680.03;4797671;29;66227;-36
2021/04/07 10:39:17;;;;;;;19.23;13.95;;;;;;;34.15;45.63;100678.88;4799231;29;69977;-35
2021/04/07 10:41:48;;;;;;;23.80;14.23;;;;;;;34.23;45.25;100681.19;4801574;29;65958;-34
2021/04/07 10:44:28;;;;;;;24.90;13.85;;;;;;;34.12;45.98;100682.09;4801005;29;70713;-34
2021/04/07 10:46:59;;;;;;;24.15;14.65;;;;;;;34.14;46.04;100693.56;4798766;29;66093;-35
2021/04/07 10:49:28;;;;;;;21.15;15.10;;;;;;;34.10;46.29;100702.47;4810607;29;69822;-35
2021/04/07 10:52:01;;;;;;;33.80;17.83;;;;;;;33.93;46.62;100692.34;4800551;29;65224;-37
2021/04/07 10:54:31;;;;;;;26.58;16.00;;;;;;;33.95;46.77;100705.72;4814151;29;68777;-37
2021/04/07 10:57:12;;;;;;;26.33;15.20;;;;;;;33.80;47.09;100685.34;4802638;29;66088;-39
2021/04/07 10:59:45;;;;;;;21.73;15.40;;;;;;;33.90;47.48;100713.81;4800784;29;70658;-41
2021/04/07 11:02:16;;;;;;;21.50;14.98;;;;;;;33.98;47.08;100710.69;4797807;29;65985;-38
2021/04/07 11:04:46;;;;;;;31.98;15.55;;;;;;;33.94;46.62;100713.06;4795365;29;69906;-39
2021/04/07 11:07:19;;;;;;;26.33;15.55;;;;;;;34.00;46.91;100719.44;4810095;29;65644;-38
2021/04/07 11:09:50;;;;;;;23.33;15.02;;;;;;;34.22;46.32;100727.72;4802148;29;69330;-38
2021/04/07 11:12:21;;;;;;;24.40;14.52;;;;;;;34.35;46.26;100737.47;4799708;29;66519;-39
2021/04/07 11:14:54;;;;;;;26.48;15.63;;;;;;;34.44;45.98;100741.44;4812357;29;69935;-38
2021/04/07 11:17:24;;;;;;;25.55;14.60;;;;;;;34.51;46.30;100733.91;4798011;29;66336;-39
2021/04/07 11:19:54;;;;;;;24.27;14.70;;;;;;;34.58;45.67;100737.31;4797423;29;69530;-38
2021/04/07 11:22:24;;;;;;;20.02;14.07;;;;;;;34.62;46.17;100743.91;4801871;29;66177;-40
2021/04/07 11:24:55;;;;;;;24.02;14.50;;;;;;;34.44;46.27;100739.53;4799976;29;69721;-39
2021/04/07 11:27:35;;;;;;;39.55;15.40;;;;;;;33.93;48.14;100725.00;4798437;29;66632;-39
2021/04/07 11:30:06;;;;;;;37.20;17.05;;;;;;;33.77;48.20;100721.22;4802144;29;68836;-39
2021/04/07 11:32:39;;;;;;;36.30;15.83;;;;;;;33.88;48.68;100749.44;4797976;29;66196;-38